createdAt,value
2018-07-06T00:02:06.358Z,95.10
2018-07-06T00:04:46.418Z,95.00
2018-07-06T00:07:26.465Z,95.00
2018-07-06T00:10:05.926Z,95.00
2018-07-06T00:12:45.674Z,95.40
2018-07-06T00:15:25.022Z,95.20
2018-07-06T00:18:04.671Z,95.30
2018-07-06T00:20:44.317Z,95.50
2018-07-06T00:23:23.966Z,95.40
2018-07-06T00:26:03.275Z,95.30
2018-07-06T00:28:47.153Z,95.20
2018-07-06T00:31:26.495Z,94.90
2018-07-06T00:34:05.944Z,94.60
2018-07-06T00:36:45.448Z,94.40
2018-07-06T00:39:24.831Z,94.30
2018-07-06T00:42:04.481Z,94.30
2018-07-06T00:44:47.914Z,94.20
2018-07-06T00:47:27.467Z,94.20
2018-07-06T00:50:07.316Z,94.20
2018-07-06T00:52:46.864Z,94.10
2018-07-06T00:55:26.424Z,94.50
2018-07-06T00:58:05.757Z,94.20
2018-07-06T01:00:45.302Z,94.20
2018-07-06T01:03:24.857Z,94.30
2018-07-06T01:06:04.794Z,94.40
2018-07-06T01:08:44.456Z,94.40
2018-07-06T01:11:23.805Z,94.60
2018-07-06T01:14:03.142Z,94.60
2018-07-06T01:16:43.108Z,94.70
2018-07-06T01:19:22.444Z,94.70
2018-07-06T01:22:01.887Z,94.70
2018-07-06T01:24:41.332Z,94.70
2018-07-06T01:27:20.776Z,94.90
2018-07-06T01:30:00.328Z,95.00
2018-07-06T01:32:41.918Z,95.30
2018-07-06T01:35:21.918Z,95.80
2018-07-06T01:38:02.364Z,96.30
2018-07-06T01:40:41.790Z,96.90
2018-07-06T01:43:21.441Z,97.60
2018-07-06T01:46:00.680Z,97.90
2018-07-06T01:48:40.329Z,98.30
2018-07-06T01:51:19.692Z,98.60
2018-07-06T01:53:59.029Z,99.00
2018-07-06T01:56:38.432Z,99.00
2018-07-06T02:01:51.520Z,99.90
2018-07-06T02:04:31.088Z,99.90
2018-07-06T02:07:10.616Z,99.90
2018-07-06T02:09:50.163Z,99.90
2018-07-06T02:12:29.609Z,99.90
2018-07-06T02:17:42.263Z,99.90
2018-07-06T02:20:21.916Z,99.90
2018-07-06T02:23:02.583Z,99.90
2018-07-06T02:25:42.233Z,99.90
2018-07-06T02:28:21.699Z,99.90
2018-07-06T02:31:01.017Z,99.90
2018-07-06T02:36:14.209Z,99.90
2018-07-06T02:38:53.631Z,99.90
2018-07-06T02:41:33.211Z,99.90
2018-07-06T02:44:12.826Z,99.90
2018-07-06T02:46:52.477Z,99.90
2018-07-06T02:49:32.128Z,99.90
2018-07-06T02:52:11.573Z,99.90
2018-07-06T02:54:50.917Z,99.90
2018-07-06T02:57:30.464Z,99.90
2018-07-06T03:00:13.697Z,99.90
2018-07-06T03:02:54.094Z,99.90
2018-07-06T03:05:33.386Z,99.90
2018-07-06T03:10:46.126Z,99.90
2018-07-06T03:13:25.701Z,99.90
2018-07-06T03:16:06.271Z,99.90
2018-07-06T03:18:46.086Z,99.90
2018-07-06T03:21:27.616Z,99.90
2018-07-06T03:26:40.884Z,99.90
2018-07-06T03:29:20.225Z,99.90
2018-07-06T03:31:59.445Z,99.90
2018-07-06T03:37:24.166Z,99.90
2018-07-06T03:40:07.103Z,99.90
2018-07-06T03:42:46.248Z,99.90
2018-07-06T03:48:00.852Z,99.90
2018-07-06T03:50:40.288Z,99.90
2018-07-06T03:53:19.745Z,99.90
2018-07-06T03:55:59.180Z,99.90
2018-07-06T03:58:38.608Z,99.90
2018-07-06T04:01:17.948Z,99.90
2018-07-06T04:03:57.412Z,99.90
2018-07-06T04:06:36.949Z,99.90
2018-07-06T04:09:16.212Z,99.90
2018-07-06T04:11:55.538Z,99.90
2018-07-06T04:14:34.791Z,99.90
2018-07-06T04:17:20.829Z,99.90
2018-07-06T04:20:00.108Z,99.90
2018-07-06T04:25:13.467Z,99.90
2018-07-06T04:32:59.558Z,99.90
2018-07-06T04:35:38.882Z,99.90
2018-07-06T04:38:18.108Z,99.90
2018-07-06T04:40:57.438Z,99.90
2018-07-06T04:43:36.919Z,99.90
2018-07-06T04:46:16.239Z,99.90
2018-07-06T04:48:55.670Z,99.90
2018-07-06T04:51:38.725Z,99.90
2018-07-06T04:54:18.281Z,99.90
2018-07-06T04:56:57.469Z,99.90
2018-07-06T04:59:42.102Z,99.90
2018-07-06T05:02:21.953Z,99.90
2018-07-06T05:05:02.383Z,99.90
2018-07-06T05:07:41.967Z,99.90
2018-07-06T05:10:21.269Z,99.90
2018-07-06T05:13:00.513Z,99.90
2018-07-06T05:15:40.490Z,99.90
2018-07-06T05:18:19.853Z,99.90
2018-07-06T05:20:59.276Z,99.90
2018-07-06T05:23:38.829Z,99.90
2018-07-06T05:26:21.809Z,99.90
2018-07-06T05:29:01.074Z,99.90
2018-07-06T05:31:40.310Z,99.90
2018-07-06T05:34:20.772Z,99.90
2018-07-06T05:37:00.129Z,99.90
2018-07-06T05:39:39.467Z,99.90
2018-07-06T05:44:56.096Z,99.90
2018-07-06T05:47:35.540Z,99.70
2018-07-06T05:50:20.802Z,99.30
2018-07-06T05:58:02.776Z,99.20
2018-07-06T06:00:42.926Z,98.50
2018-07-06T06:03:21.980Z,98.50
2018-07-06T06:08:21.605Z,98.20
2018-07-06T06:13:16.494Z,98.10
2018-07-06T06:15:43.996Z,97.80
2018-07-06T06:20:38.945Z,97.50
2018-07-06T06:23:06.451Z,97.60
2018-07-06T06:25:33.951Z,97.50
2018-07-06T06:28:01.529Z,97.50
2018-07-06T06:30:29.126Z,97.00
2018-07-06T06:35:24.255Z,96.80
2018-07-06T06:37:51.967Z,97.00
2018-07-06T06:40:19.472Z,97.10
2018-07-06T06:42:47.042Z,97.00
2018-07-06T06:45:14.523Z,97.00
2018-07-06T06:47:42.146Z,97.00
2018-07-06T06:50:09.784Z,97.00
2018-07-06T06:52:37.508Z,97.10
2018-07-06T06:55:05.126Z,97.40
2018-07-06T06:57:32.785Z,97.70
2018-07-06T07:00:00.510Z,97.80
2018-07-06T07:02:28.118Z,97.80
2018-07-06T07:04:55.735Z,98.00
2018-07-06T07:07:23.441Z,98.00
2018-07-06T07:09:51.061Z,98.30
2018-07-06T07:12:18.646Z,98.40
2018-07-06T07:19:41.409Z,99.30
2018-07-06T07:22:09.055Z,99.40
2018-07-06T07:24:37.323Z,99.60
2018-07-06T07:27:04.892Z,99.80
2018-07-06T07:29:32.584Z,99.70
2018-07-06T07:32:00.255Z,99.90
2018-07-06T07:34:27.832Z,99.90
2018-07-06T07:36:55.511Z,99.90
2018-07-06T07:39:23.091Z,99.90
2018-07-06T07:41:51.573Z,99.90
2018-07-06T07:44:19.124Z,99.90
2018-07-06T07:46:46.730Z,99.90
2018-07-06T07:49:14.315Z,99.90
2018-07-06T07:51:55.420Z,99.90
2018-07-06T07:54:32.663Z,99.90
2018-07-06T07:57:01.270Z,99.70
2018-07-06T07:59:30.432Z,99.30
2018-07-06T08:04:26.538Z,99.00
2018-07-06T08:06:54.100Z,98.50
2018-07-06T08:09:22.405Z,98.40
2018-07-06T08:14:21.562Z,97.50
2018-07-06T08:16:49.329Z,97.70
2018-07-06T08:19:17.055Z,98.10
2018-07-06T08:21:44.989Z,98.00
2018-07-06T08:24:12.571Z,98.10
2018-07-06T08:29:07.589Z,97.60
2018-07-06T08:34:14.625Z,97.70
2018-07-06T08:37:53.644Z,97.60
2018-07-06T08:40:22.347Z,97.80
2018-07-06T08:42:53.060Z,98.00
2018-07-06T08:45:20.601Z,97.90
2018-07-06T08:47:48.692Z,97.70
2018-07-06T08:50:16.329Z,97.80
2018-07-06T08:52:45.045Z,97.80
2018-07-06T08:55:12.576Z,97.60
2018-07-06T08:57:41.166Z,97.70
2018-07-06T09:00:09.698Z,97.30
2018-07-06T09:02:37.282Z,97.30
2018-07-06T09:05:05.308Z,97.40
2018-07-06T09:07:32.899Z,97.20
2018-07-06T09:10:01.065Z,97.30
2018-07-06T09:12:28.687Z,97.10
2018-07-06T09:14:56.876Z,97.00
2018-07-06T09:17:24.590Z,96.70
2018-07-06T09:19:53.405Z,96.50
2018-07-06T09:22:20.903Z,96.30
2018-07-06T09:24:49.760Z,96.00
2018-07-06T09:27:17.358Z,95.80
2018-07-06T09:29:44.885Z,96.00
2018-07-06T09:32:12.480Z,96.50
2018-07-06T09:34:40.386Z,95.90
2018-07-06T09:37:08.284Z,95.80
2018-07-06T09:39:36.338Z,95.80
2018-07-06T09:42:03.982Z,95.70
2018-07-06T09:44:31.614Z,95.50
2018-07-06T09:46:59.169Z,95.10
2018-07-06T09:49:26.834Z,95.00
2018-07-06T09:51:54.548Z,94.80
2018-07-06T09:54:22.094Z,94.70
2018-07-06T09:56:49.723Z,94.30
2018-07-06T10:01:44.800Z,93.50
2018-07-06T10:04:12.331Z,93.10
2018-07-06T10:06:39.925Z,93.20
2018-07-06T10:09:08.624Z,93.40
2018-07-06T10:11:36.223Z,93.20
2018-07-06T10:14:03.805Z,93.20
2018-07-06T10:16:31.363Z,93.50
2018-07-06T10:18:58.955Z,92.60
2018-07-06T10:21:26.902Z,92.30
2018-07-06T10:23:54.554Z,91.10
2018-07-06T10:26:22.425Z,90.40
2018-07-06T10:31:06.516Z,89.60
2018-07-06T10:33:34.164Z,90.00
2018-07-06T10:36:01.766Z,87.90
2018-07-06T10:38:29.366Z,87.50
2018-07-06T10:40:56.887Z,87.90
2018-07-06T10:43:24.431Z,88.10
2018-07-06T10:45:51.953Z,87.90
2018-07-06T10:48:19.590Z,86.80
2018-07-06T10:50:47.236Z,85.90
2018-07-06T10:53:14.869Z,84.60
2018-07-06T10:55:42.482Z,82.60
2018-07-06T10:58:10.142Z,81.20
2018-07-06T11:00:37.768Z,80.70
2018-07-06T11:03:05.386Z,81.10
2018-07-06T11:05:32.944Z,81.30
2018-07-06T11:08:00.560Z,82.00
2018-07-06T11:10:28.231Z,82.30
2018-07-06T11:12:55.811Z,81.00
2018-07-06T11:15:23.475Z,79.80
2018-07-06T11:17:51.185Z,78.70
2018-07-06T11:20:18.881Z,78.40
2018-07-06T11:22:46.572Z,78.40
2018-07-06T11:25:14.273Z,78.60
2018-07-06T11:27:41.890Z,78.90
2018-07-06T11:30:09.544Z,78.80
2018-07-06T11:32:37.169Z,78.50
2018-07-06T11:35:04.781Z,79.00
2018-07-06T11:37:32.748Z,79.20
2018-07-06T11:40:00.360Z,78.20
2018-07-06T11:42:27.969Z,76.70
2018-07-06T11:44:55.625Z,75.30
2018-07-06T11:47:23.184Z,76.00
2018-07-06T11:49:50.736Z,73.70
2018-07-06T11:52:18.363Z,71.70
2018-07-06T11:54:46.073Z,70.80
2018-07-06T11:57:13.748Z,70.50
2018-07-06T12:02:08.851Z,70.80
2018-07-06T12:04:36.429Z,70.70
2018-07-06T12:07:04.048Z,70.20
2018-07-06T12:09:31.745Z,69.60
2018-07-06T12:11:59.459Z,69.80
2018-07-06T12:14:27.115Z,68.80
2018-07-06T12:16:54.726Z,67.60
2018-07-06T12:19:22.376Z,67.50
2018-07-06T12:21:50.368Z,66.80
2018-07-06T12:24:17.941Z,67.00
2018-07-06T12:26:45.637Z,67.50
2018-07-06T12:29:13.277Z,68.10
2018-07-06T12:31:40.846Z,68.00
2018-07-06T12:34:08.766Z,68.90
2018-07-06T12:36:36.493Z,67.80
2018-07-06T12:39:04.892Z,67.80
2018-07-06T12:41:32.650Z,67.00
2018-07-06T12:44:00.701Z,67.40
2018-07-06T12:46:28.393Z,66.70
2018-07-06T12:48:56.131Z,66.50
2018-07-06T12:51:24.250Z,66.60
2018-07-06T12:56:19.445Z,66.20
2018-07-06T12:58:47.141Z,67.30
2018-07-06T13:01:14.825Z,67.20
2018-07-06T13:03:42.438Z,66.80
2018-07-06T13:06:10.066Z,66.00
2018-07-06T13:08:37.685Z,65.40
2018-07-06T13:13:33.119Z,65.50
2018-07-06T13:16:00.759Z,64.10
2018-07-06T13:20:55.957Z,63.60
2018-07-06T13:23:23.519Z,63.20
2018-07-06T13:25:51.129Z,63.40
2018-07-06T13:28:19.728Z,63.60
2018-07-06T13:30:47.412Z,64.00
2018-07-06T13:33:15.026Z,63.60
2018-07-06T13:35:42.761Z,64.40
2018-07-06T13:40:37.882Z,65.50
2018-07-06T13:45:33.399Z,65.80
2018-07-06T13:48:01.154Z,66.40
2018-07-06T13:50:28.757Z,66.50
2018-07-06T13:52:56.419Z,66.80
2018-07-06T13:55:24.289Z,66.70
2018-07-06T13:57:51.903Z,66.50
2018-07-06T14:00:19.511Z,66.60
2018-07-06T14:02:47.117Z,67.20
2018-07-06T14:05:14.769Z,67.50
2018-07-06T14:07:42.337Z,67.60
2018-07-06T14:10:10.071Z,67.20
2018-07-06T14:12:37.707Z,69.20
2018-07-06T14:15:05.346Z,69.30
2018-07-06T14:17:33.005Z,69.20
2018-07-06T14:22:28.166Z,69.30
2018-07-06T14:24:55.806Z,69.50
2018-07-06T14:27:23.909Z,69.70
2018-07-06T14:29:51.738Z,70.00
2018-07-06T14:32:19.336Z,70.50
2018-07-06T14:34:47.047Z,70.30
2018-07-06T14:37:14.859Z,70.50
2018-07-06T14:39:42.527Z,70.70
2018-07-06T14:42:10.356Z,70.70
2018-07-06T14:44:38.047Z,71.00
2018-07-06T14:47:05.853Z,71.30
2018-07-06T14:52:01.219Z,71.50
2018-07-06T14:54:29.166Z,71.40
2018-07-06T14:56:56.863Z,71.20
2018-07-06T14:59:24.517Z,71.40
2018-07-06T15:01:52.153Z,72.00
2018-07-06T15:04:19.891Z,72.50
2018-07-06T15:06:47.726Z,73.10
2018-07-06T15:09:15.440Z,72.20
2018-07-06T15:11:42.991Z,72.00
2018-07-06T15:16:38.443Z,72.60
2018-07-06T15:19:06.098Z,72.60
2018-07-06T15:21:33.723Z,73.20
2018-07-06T15:24:01.570Z,74.30
2018-07-06T15:26:29.365Z,74.00
2018-07-06T15:28:57.608Z,73.70
2018-07-06T15:31:25.256Z,73.50
2018-07-06T15:33:52.915Z,73.20
2018-07-06T15:36:20.671Z,73.50
2018-07-06T15:38:48.210Z,73.90
2018-07-06T15:41:15.972Z,73.90
2018-07-06T15:43:43.569Z,73.40
2018-07-06T15:46:11.255Z,73.40
2018-07-06T15:48:38.867Z,73.70
2018-07-06T15:51:06.633Z,72.40
2018-07-06T15:53:34.217Z,71.80
2018-07-06T15:56:01.839Z,71.20
2018-07-06T15:58:29.450Z,70.60
2018-07-06T16:00:57.038Z,70.80
2018-07-06T16:03:24.736Z,71.10
2018-07-06T16:05:52.364Z,72.00
2018-07-06T16:08:19.932Z,71.70
2018-07-06T16:13:14.962Z,69.60
2018-07-06T16:15:42.534Z,69.20
2018-07-06T16:18:10.139Z,68.90
2018-07-06T16:20:37.730Z,69.30
2018-07-06T16:23:05.673Z,70.10
2018-07-06T16:25:33.294Z,71.00
2018-07-06T16:28:00.922Z,72.10
2018-07-06T16:30:28.527Z,70.90
2018-07-06T16:32:56.115Z,70.60
2018-07-06T16:40:18.827Z,70.50
2018-07-06T16:42:46.418Z,70.80
2018-07-06T16:45:13.983Z,70.20
2018-07-06T16:47:41.505Z,70.80
2018-07-06T16:50:09.131Z,71.20
2018-07-06T16:55:04.173Z,72.10
2018-07-06T16:57:31.768Z,72.30
2018-07-06T16:59:59.368Z,72.80
2018-07-06T17:04:54.464Z,73.00
2018-07-06T17:07:22.033Z,72.80
2018-07-06T17:09:49.752Z,73.30
2018-07-06T17:12:17.335Z,73.60
2018-07-06T17:14:44.958Z,73.60
2018-07-06T17:17:13.326Z,73.80
2018-07-06T17:19:41.627Z,73.60
2018-07-06T17:22:09.280Z,73.60
2018-07-06T17:24:36.848Z,74.30
2018-07-06T17:27:04.480Z,74.80
2018-07-06T17:29:32.053Z,74.90
2018-07-06T17:31:59.614Z,75.50
2018-07-06T17:34:27.178Z,75.80
2018-07-06T17:36:54.757Z,76.30
2018-07-06T17:39:22.312Z,76.70
2018-07-06T17:41:49.836Z,76.20
2018-07-06T17:44:17.409Z,76.40
2018-07-06T17:46:44.985Z,77.10
2018-07-06T17:49:12.535Z,77.50
2018-07-06T17:51:40.105Z,77.70
2018-07-06T17:54:07.692Z,78.00
2018-07-06T17:56:35.850Z,78.50
2018-07-06T17:59:03.885Z,78.60
2018-07-06T18:01:31.454Z,78.90
2018-07-06T18:03:59.088Z,78.80
2018-07-06T18:06:26.632Z,78.90
2018-07-06T18:11:21.834Z,79.60
2018-07-06T18:13:49.538Z,79.40
2018-07-06T18:16:17.665Z,79.50
2018-07-06T18:18:45.217Z,79.60
2018-07-06T18:21:12.838Z,79.90
2018-07-06T18:23:40.465Z,80.30
2018-07-06T18:28:35.627Z,81.40
2018-07-06T18:31:03.237Z,81.40
2018-07-06T18:33:30.758Z,81.50
2018-07-06T18:35:58.359Z,82.00
2018-07-06T18:40:53.437Z,81.80
2018-07-06T18:43:21.008Z,81.40
2018-07-06T18:45:48.588Z,81.20
2018-07-06T18:48:16.174Z,81.20
2018-07-06T18:50:43.758Z,81.60
2018-07-06T18:53:11.353Z,82.00
2018-07-06T18:55:38.955Z,82.20
2018-07-06T18:58:06.550Z,82.30
2018-07-06T19:00:34.189Z,82.10
2018-07-06T19:05:30.880Z,83.50
2018-07-06T19:07:59.365Z,83.30
2018-07-06T19:15:25.475Z,84.50
2018-07-06T19:17:53.847Z,85.00
2018-07-06T19:20:23.115Z,84.90
2018-07-06T19:22:53.661Z,85.20
2018-07-06T19:30:18.348Z,85.00
2018-07-06T19:32:50.308Z,84.10
2018-07-06T19:35:18.937Z,83.70
2018-07-06T19:37:47.408Z,83.30
2018-07-06T19:40:16.043Z,83.20
2018-07-06T19:42:48.525Z,82.90
2018-07-06T19:45:17.141Z,83.00
2018-07-06T19:47:45.528Z,83.10
2018-07-06T19:50:17.652Z,83.00
2018-07-06T19:52:45.815Z,83.20
2018-07-06T19:55:14.428Z,83.30
2018-07-06T19:57:43.026Z,83.50
2018-07-06T20:00:18.542Z,83.80
2018-07-06T20:02:46.657Z,84.10
2018-07-06T20:07:43.185Z,84.40
2018-07-06T20:10:15.044Z,84.20
2018-07-06T20:12:43.568Z,84.30
2018-07-06T20:15:11.926Z,84.30
2018-07-06T20:17:40.447Z,84.40
2018-07-06T20:20:09.343Z,84.50
2018-07-06T20:22:38.010Z,84.70
2018-07-06T20:25:06.461Z,84.60
2018-07-06T20:27:39.485Z,84.00
2018-07-06T20:30:08.025Z,83.70
2018-07-06T20:32:36.472Z,83.90
2018-07-06T20:35:08.855Z,84.00
2018-07-06T20:40:08.863Z,84.70
2018-07-06T20:42:38.405Z,85.10
2018-07-06T20:45:07.887Z,85.80
2018-07-06T20:47:36.357Z,86.10
2018-07-06T20:50:04.874Z,86.50
2018-07-06T20:52:46.273Z,86.90
2018-07-06T20:55:14.874Z,86.90
2018-07-06T20:57:43.052Z,87.00
2018-07-06T21:00:11.267Z,87.40
2018-07-06T21:02:39.646Z,87.70
2018-07-06T21:05:10.118Z,88.10
2018-07-06T21:07:39.640Z,87.90
2018-07-06T21:10:08.214Z,88.50
2018-07-06T21:12:36.627Z,88.70
2018-07-06T21:15:05.241Z,89.20
2018-07-06T21:17:33.690Z,89.50
2018-07-06T21:20:02.450Z,89.90
2018-07-06T21:22:31.052Z,90.00
2018-07-06T21:24:59.541Z,90.10
2018-07-06T21:29:55.629Z,90.40
2018-07-06T21:34:52.332Z,90.60
2018-07-06T21:37:20.767Z,90.70
2018-07-06T21:39:50.478Z,90.90
2018-07-06T21:42:20.301Z,91.10
2018-07-06T21:44:48.571Z,91.20
2018-07-06T21:47:17.131Z,91.30
2018-07-06T21:49:45.804Z,91.80
2018-07-06T21:52:14.420Z,91.60
2018-07-06T21:54:42.916Z,91.80
2018-07-06T21:57:11.544Z,91.90
2018-07-06T21:59:39.883Z,92.10
2018-07-06T22:02:13.779Z,92.60
2018-07-06T22:04:43.013Z,92.50
2018-07-06T22:07:12.486Z,92.60
2018-07-06T22:09:46.360Z,92.80
2018-07-06T22:12:15.663Z,92.90
2018-07-06T22:14:44.610Z,93.00
2018-07-06T22:17:14.088Z,93.10
2018-07-06T22:19:43.149Z,93.30
2018-07-06T22:22:12.340Z,93.50
2018-07-06T22:24:40.668Z,93.90
2018-07-06T22:29:43.189Z,93.90
2018-07-06T22:32:12.229Z,94.00
2018-07-06T22:34:41.809Z,94.10
2018-07-06T22:37:11.179Z,94.30
2018-07-06T22:39:41.181Z,94.40
2018-07-06T22:42:09.626Z,94.50
2018-07-06T22:44:39.108Z,94.60
2018-07-06T22:49:37.208Z,94.40
2018-07-06T22:52:09.788Z,94.50
2018-07-06T22:54:38.900Z,94.70
2018-07-06T22:57:07.936Z,94.80
2018-07-06T22:59:36.680Z,94.80
2018-07-06T23:02:08.944Z,94.90
2018-07-06T23:04:38.109Z,95.40
2018-07-06T23:07:06.670Z,95.20
2018-07-06T23:09:35.477Z,95.30
2018-07-06T23:14:34.544Z,95.40
2018-07-06T23:17:03.591Z,95.40
2018-07-06T23:19:32.743Z,95.40
2018-07-06T23:22:01.407Z,95.40
2018-07-06T23:24:30.339Z,95.50
2018-07-06T23:26:58.986Z,95.60
2018-07-06T23:29:28.365Z,95.80
2018-07-06T23:31:57.283Z,95.90
2018-07-06T23:34:26.028Z,96.10
2018-07-06T23:36:55.057Z,96.20
2018-07-06T23:39:27.892Z,96.20
2018-07-06T23:41:57.153Z,96.30
2018-07-06T23:44:26.506Z,96.50
2018-07-06T23:46:55.102Z,96.60
2018-07-06T23:49:23.722Z,96.60
2018-07-06T23:51:52.915Z,96.60
2018-07-06T23:54:21.944Z,96.70
2018-07-06T23:56:50.746Z,96.70
2018-07-06T23:59:19.334Z,96.70
